Terminal Aerodrome Forecast
Issued by NWS

Home | Current Version | Previous Version | Text Only | Print | Product List | Glossary On
Versions: 1 2 3 4 5 6 7 8 9 10 11 12 13
000
FTUS46 KSTO 170500
TAFRBL
TAF
KRBL 170523Z 1706/1806 VRB04KT P6SM BKN200
     FM172100 16017G23KT P6SM BKN200
     FM180300 17010KT P6SM SCT100 BKN200=

USA.gov is the U.S. government's official web portal to all federal, state and local government web resources and services.